»·PEaware :: UAL576 KRNO-KLAX

UAL576 :: KRNO-KLAX

FLIGHT INFORMATION

Flight Status: Arrived
Operator:
United Airlines
More flights by this operator :: More flights under this callsign
Pilot: Anonymous 8274 (8274)
Aircraft: BOEING 737-200
(B732)
More flights by this aircraft type
Origin: KRNO Reno/Tahoe Intl
United States
Destination: KLAX Los Angeles Intl
United States
More flights between these airports :: More routes between these airports
Route: +WAGGE6 WAGGE FRA AVE SADDE8
File this flight plan on PilotEdge
Remarks:
Altitude:
(Current/Filed)
32,000ft
Speed:
(Current/Filed)
460kts
Departed: 12-Jun-19 04:33 PM
Arrived: 12-Jun-19 05:46 PM
Distance/Time
Traveled:
339nm/1:13
Distance/Time
To Go:
Arrived

Flight Plot

Page will automatically refresh every two minutes.

Flight plan parsing failed; only flown route is shown


Map Options




Map Legend


Flown Route
Filed Route
Departure Airport
Arrival Airport
Navaid (VOR, NDB)
Fix

Horizontal Profiles

Position Reports

Time Latitude Longitude Heading Altitude Ground
Speed
12-Jun-19 15:37 39.507417 -119.773482 198 4417ft 0kts
12-Jun-19 15:38 39.507417 -119.773482 198 4417ft 0kts
12-Jun-19 15:39 39.507417 -119.773482 198 4417ft 0kts
12-Jun-19 15:40 39.507417 -119.773482 198 4417ft 0kts
12-Jun-19 15:41 39.507417 -119.773482 198 4417ft 0kts
12-Jun-19 15:42 39.507417 -119.773482 198 4417ft 0kts
12-Jun-19 15:43 39.507417 -119.773482 198 4417ft 0kts
12-Jun-19 15:44 39.507417 -119.773482 198 4417ft 0kts
12-Jun-19 15:45 39.507417 -119.773482 198 4417ft 0kts
12-Jun-19 15:46 39.507417 -119.773482 198 4417ft 0kts
12-Jun-19 15:47 39.507417 -119.773482 198 4417ft 0kts
12-Jun-19 15:48 39.507417 -119.773482 198 4417ft 0kts
12-Jun-19 15:49 39.507417 -119.773482 198 4417ft 0kts
12-Jun-19 15:50 39.507417 -119.773482 198 4417ft 0kts
12-Jun-19 15:51 39.507417 -119.773482 198 4417ft 0kts
12-Jun-19 15:52 39.507417 -119.773482 198 4417ft 0kts
12-Jun-19 15:53 39.507417 -119.773482 198 4417ft 0kts
12-Jun-19 15:54 39.507417 -119.773482 198 4417ft 0kts
12-Jun-19 15:55 39.507417 -119.773482 198 4417ft 0kts
12-Jun-19 15:56 39.507417 -119.773482 198 4417ft 0kts
12-Jun-19 15:57 39.507417 -119.773482 198 4417ft 0kts
12-Jun-19 15:58 39.507417 -119.773482 198 4417ft 0kts
12-Jun-19 15:59 39.507417 -119.773482 198 4417ft 0kts
12-Jun-19 16:00 39.507417 -119.773482 198 4417ft 0kts
12-Jun-19 16:01 39.507417 -119.773482 198 4417ft 0kts
12-Jun-19 16:02 39.507417 -119.773482 198 4417ft 0kts
12-Jun-19 16:03 39.507417 -119.773482 198 4417ft 0kts
12-Jun-19 16:04 39.507417 -119.773482 198 4417ft 0kts
12-Jun-19 16:05 39.507417 -119.773482 198 4417ft 0kts
12-Jun-19 16:06 39.507417 -119.773482 198 4417ft 0kts
12-Jun-19 16:07 39.507417 -119.773482 198 4417ft 0kts
12-Jun-19 16:08 39.507417 -119.773482 198 4417ft 0kts
12-Jun-19 16:09 39.507417 -119.773482 198 4417ft 0kts
12-Jun-19 16:10 39.507417 -119.773482 198 4417ft 0kts
12-Jun-19 16:11 39.507417 -119.773482 198 4417ft 0kts
12-Jun-19 16:12 39.507417 -119.773482 198 4417ft 0kts
12-Jun-19 16:13 39.507417 -119.773482 198 4417ft 0kts
12-Jun-19 16:14 39.507417 -119.773482 198 4417ft 0kts
12-Jun-19 16:15 39.507417 -119.773482 198 4417ft 0kts
12-Jun-19 16:16 39.507417 -119.773482 198 4417ft 0kts
12-Jun-19 16:17 39.507417 -119.773482 198 4417ft 0kts
12-Jun-19 16:19 39.507417 -119.773482 198 4417ft 0kts
12-Jun-19 16:20 39.507417 -119.773482 198 4417ft 0kts
12-Jun-19 16:21 39.507417 -119.773482 198 4417ft 0kts
12-Jun-19 16:22 39.507417 -119.773482 198 4417ft 0kts
12-Jun-19 16:23 39.507888 -119.773363 151 4417ft 2kts
12-Jun-19 16:24 39.508025 -119.773736 86 4417ft 0kts
12-Jun-19 16:25 39.508025 -119.773736 86 4417ft 0kts
12-Jun-19 16:26 39.508026 -119.772566 90 4417ft 4kts
12-Jun-19 16:27 39.506688 -119.771492 179 4417ft 10kts
12-Jun-19 16:28 39.503291 -119.771517 180 4417ft 16kts
12-Jun-19 16:29 39.497454 -119.771539 180 4417ft 23kts
12-Jun-19 16:30 39.489180 -119.771560 180 4417ft 37kts
12-Jun-19 16:31 39.483756 -119.770566 91 4417ft 0kts
12-Jun-19 16:32 39.483756 -119.770560 91 4417ft 0kts
12-Jun-19 16:33 39.490415 -119.769276 358 4418ft 98kts
12-Jun-19 16:34 39.530039 -119.764824 15 5561ft 153kts
12-Jun-19 16:35 39.577246 -119.746936 14 6664ft 205kts
12-Jun-19 16:36 39.639753 -119.720866 14 8369ft 264kts
12-Jun-19 16:37 39.683060 -119.643414 97 10508ft 323kts
12-Jun-19 16:38 39.611715 -119.572668 172 12434ft 356kts
12-Jun-19 16:39 39.511468 -119.548561 172 14683ft 375kts
12-Jun-19 16:39 39.425730 -119.526026 172 16525ft 383kts
12-Jun-19 16:41 39.301983 -119.492983 172 18813ft 396kts
12-Jun-19 16:42 39.191369 -119.463525 172 20475ft 408kts
12-Jun-19 16:42 39.097482 -119.438653 172 21717ft 418kts
12-Jun-19 16:43 38.982250 -119.408441 172 23110ft 429kts
12-Jun-19 16:45 38.845434 -119.372846 172 24567ft 440kts
12-Jun-19 16:45 38.744799 -119.346313 172 25457ft 449kts
12-Jun-19 16:46 38.625515 -119.314210 172 26441ft 456kts
12-Jun-19 16:47 38.500490 -119.280005 172 27363ft 463kts
12-Jun-19 16:48 38.373564 -119.244792 172 28202ft 470kts
12-Jun-19 16:49 38.244926 -119.208670 172 28981ft 476kts
12-Jun-19 16:50 38.114779 -119.171738 172 29701ft 482kts
12-Jun-19 16:51 37.984537 -119.134323 172 30679ft 480kts
12-Jun-19 16:52 37.861083 -119.098546 172 31476ft 479kts
12-Jun-19 16:53 37.731242 -119.060800 172 32185ft 480kts
12-Jun-19 16:54 37.607494 -119.075389 218 32309ft 439kts
12-Jun-19 16:55 37.508767 -119.162908 225 32289ft 433kts
12-Jun-19 16:56 37.413892 -119.256147 229 32289ft 429kts
12-Jun-19 16:57 37.326035 -119.358163 230 32293ft 431kts
12-Jun-19 16:58 37.236475 -119.459755 228 32291ft 437kts
12-Jun-19 16:59 37.141841 -119.556461 225 32228ft 445kts
12-Jun-19 17:00 37.029235 -119.623360 187 32102ft 485kts
12-Jun-19 17:01 36.899979 -119.625159 190 31962ft 485kts
12-Jun-19 17:02 36.768307 -119.648908 199 31854ft 474kts
12-Jun-19 17:03 36.643653 -119.683525 199 31860ft 472kts
12-Jun-19 17:04 36.516307 -119.718742 199 31861ft 470kts
12-Jun-19 17:05 36.388659 -119.753859 199 31862ft 469kts
12-Jun-19 17:06 36.260587 -119.786127 197 31863ft 470kts
12-Jun-19 17:07 36.134838 -119.823725 203 31864ft 463kts
12-Jun-19 17:08 36.011488 -119.868069 203 31863ft 460kts
12-Jun-19 17:09 35.898562 -119.905533 198 31853ft 462kts
12-Jun-19 17:10 35.771385 -119.932133 197 31829ft 459kts
12-Jun-19 17:11 35.646573 -119.960060 197 31830ft 455kts
12-Jun-19 17:12 35.522399 -119.941825 145 31845ft 483kts
12-Jun-19 17:13 35.436778 -119.814877 127 31834ft 484kts
12-Jun-19 17:14 35.345729 -119.694325 139 31830ft 481kts
12-Jun-19 17:15 35.239923 -119.595025 149 31842ft 476kts
12-Jun-19 17:16 35.123843 -119.519785 158 31840ft 472kts
12-Jun-19 17:17 35.009444 -119.441098 147 31844ft 476kts
12-Jun-19 17:18 34.903550 -119.349114 147 31572ft 470kts
12-Jun-19 17:19 34.800083 -119.258837 147 29185ft 475kts
12-Jun-19 17:20 34.692457 -119.164078 147 27043ft 467kts
12-Jun-19 17:21 34.594307 -119.076702 147 25426ft 451kts
12-Jun-19 17:22 34.510969 -119.002008 151 24140ft 424kts
12-Jun-19 17:23 34.411556 -118.930421 154 22097ft 407kts
12-Jun-19 17:24 34.321064 -118.866618 151 19206ft 364kts
12-Jun-19 17:25 34.229545 -118.827741 170 15693ft 341kts
12-Jun-19 17:26 34.139199 -118.801646 165 12268ft 327kts
12-Jun-19 17:27 34.056079 -118.774203 165 12016ft 310kts
12-Jun-19 17:28 34.017155 -118.695064 83 11727ft 300kts
12-Jun-19 17:29 34.029604 -118.596493 96 9697ft 293kts
12-Jun-19 17:30 34.015589 -118.501407 104 7252ft 284kts
12-Jun-19 17:31 34.013978 -118.414174 81 6694ft 255kts
12-Jun-19 17:32 34.025990 -118.331613 82 5805ft 250kts
12-Jun-19 17:33 34.037611 -118.253524 81 4991ft 231kts
12-Jun-19 17:34 34.048916 -118.176683 81 4984ft 234kts
12-Jun-19 17:35 34.060248 -118.098679 86 4976ft 233kts
12-Jun-19 17:36 34.019817 -118.063331 181 4985ft 204kts
12-Jun-19 17:37 33.983589 -118.104316 252 4671ft 177kts
12-Jun-19 17:38 33.976215 -118.161461 263 4013ft 156kts
12-Jun-19 17:39 33.973478 -118.209934 265 3240ft 138kts
12-Jun-19 17:40 33.969211 -118.255415 259 2570ft 135kts
12-Jun-19 17:41 33.962945 -118.299411 270 2043ft 133kts
12-Jun-19 17:42 33.957972 -118.343614 263 1108ft 131kts
12-Jun-19 17:43 33.953707 -118.386869 261 403ft 128kts
12-Jun-19 17:44 33.950067 -118.421826 263 112ft 49kts
12-Jun-19 17:45 33.948551 -118.426726 225 112ft 0kts
12-Jun-19 17:46 33.948551 -118.426726 225 112ft 0kts
12-Jun-19 17:47 33.946426 -118.426317 82 112ft 16kts
12-Jun-19 17:48 33.947161 -118.419168 82 112ft 29kts
12-Jun-19 17:49 33.948249 -118.409198 114 112ft 18kts
12-Jun-19 17:50 33.947168 -118.404815 134 112ft 6kts

Navigation Log

Ident Type
Flight plan parsing failed, navigation log unavailable